sensor_id;sensor_type;location;lat;lon;timestamp;P1;durP1;ratioP1;P2;durP2;ratioP2
59974;SDS011;62136;-35.664;-63.766;2022-09-01T00:01:39;11.70;;;10.50;;
59974;SDS011;62136;-35.664;-63.766;2022-09-01T00:04:09;12.93;;;10.13;;
59974;SDS011;62136;-35.664;-63.766;2022-09-01T00:06:37;11.13;;;9.95;;
59974;SDS011;62136;-35.664;-63.766;2022-09-01T00:09:06;11.63;;;10.43;;
59974;SDS011;62136;-35.664;-63.766;2022-09-01T00:11:36;15.23;;;10.38;;
59974;SDS011;62136;-35.664;-63.766;2022-09-01T00:14:06;13.05;;;10.10;;
59974;SDS011;62136;-35.664;-63.766;2022-09-01T00:16:34;12.43;;;10.00;;
59974;SDS011;62136;-35.664;-63.766;2022-09-01T00:19:01;12.10;;;10.45;;
59974;SDS011;62136;-35.664;-63.766;2022-09-01T00:21:32;12.77;;;10.30;;
59974;SDS011;62136;-35.664;-63.766;2022-09-01T00:24:02;12.90;;;10.70;;
59974;SDS011;62136;-35.664;-63.766;2022-09-01T00:26:30;15.52;;;11.32;;
59974;SDS011;62136;-35.664;-63.766;2022-09-01T00:28:57;15.07;;;10.63;;
59974;SDS011;62136;-35.664;-63.766;2022-09-01T00:31:25;12.48;;;10.15;;
59974;SDS011;62136;-35.664;-63.766;2022-09-01T00:33:52;12.70;;;11.02;;
59974;SDS011;62136;-35.664;-63.766;2022-09-01T00:36:20;15.48;;;10.80;;
59974;SDS011;62136;-35.664;-63.766;2022-09-01T00:38:48;17.33;;;10.85;;
59974;SDS011;62136;-35.664;-63.766;2022-09-01T00:41:22;16.05;;;10.85;;
59974;SDS011;62136;-35.664;-63.766;2022-09-01T00:43:53;14.63;;;10.43;;
59974;SDS011;62136;-35.664;-63.766;2022-09-01T00:46:33;15.32;;;10.63;;
59974;SDS011;62136;-35.664;-63.766;2022-09-01T00:49:05;13.18;;;10.98;;
59974;SDS011;62136;-35.664;-63.766;2022-09-01T00:51:37;16.27;;;10.98;;
59974;SDS011;62136;-35.664;-63.766;2022-09-01T00:54:08;12.63;;;9.82;;
59974;SDS011;62136;-35.664;-63.766;2022-09-01T00:56:42;13.07;;;10.02;;
59974;SDS011;62136;-35.664;-63.766;2022-09-01T00:59:10;13.02;;;10.55;;
59974;SDS011;62136;-35.664;-63.766;2022-09-01T01:01:38;11.15;;;9.73;;
59974;SDS011;62136;-35.664;-63.766;2022-09-01T01:04:06;11.10;;;9.57;;
59974;SDS011;62136;-35.664;-63.766;2022-09-01T01:06:43;14.57;;;10.65;;
59974;SDS011;62136;-35.664;-63.766;2022-09-01T01:09:17;13.07;;;10.35;;
59974;SDS011;62136;-35.664;-63.766;2022-09-01T01:11:47;11.52;;;10.20;;
59974;SDS011;62136;-35.664;-63.766;2022-09-01T01:14:14;14.65;;;11.05;;
59974;SDS011;62136;-35.664;-63.766;2022-09-01T01:16:43;12.02;;;10.10;;
59974;SDS011;62136;-35.664;-63.766;2022-09-01T01:19:28;14.98;;;10.35;;
59974;SDS011;62136;-35.664;-63.766;2022-09-01T01:22:20;11.73;;;10.48;;
59974;SDS011;62136;-35.664;-63.766;2022-09-01T01:25:22;12.48;;;9.98;;
59974;SDS011;62136;-35.664;-63.766;2022-09-01T01:27:50;11.18;;;9.77;;
59974;SDS011;62136;-35.664;-63.766;2022-09-01T01:30:17;15.05;;;10.73;;
59974;SDS011;62136;-35.664;-63.766;2022-09-01T01:32:46;14.07;;;10.52;;
59974;SDS011;62136;-35.664;-63.766;2022-09-01T01:35:14;11.65;;;10.27;;
59974;SDS011;62136;-35.664;-63.766;2022-09-01T01:37:46;11.52;;;10.00;;
59974;SDS011;62136;-35.664;-63.766;2022-09-01T01:40:14;14.07;;;10.35;;
59974;SDS011;62136;-35.664;-63.766;2022-09-01T01:42:47;10.82;;;9.73;;
59974;SDS011;62136;-35.664;-63.766;2022-09-01T01:45:17;13.65;;;9.98;;
59974;SDS011;62136;-35.664;-63.766;2022-09-01T01:47:47;11.90;;;10.07;;
59974;SDS011;62136;-35.664;-63.766;2022-09-01T01:50:24;12.68;;;10.45;;
59974;SDS011;62136;-35.664;-63.766;2022-09-01T01:52:55;14.10;;;9.95;;
59974;SDS011;62136;-35.664;-63.766;2022-09-01T01:55:24;12.40;;;9.40;;
59974;SDS011;62136;-35.664;-63.766;2022-09-01T01:57:53;10.93;;;9.52;;
59974;SDS011;62136;-35.664;-63.766;2022-09-01T02:00:22;10.25;;;9.15;;
59974;SDS011;62136;-35.664;-63.766;2022-09-01T02:02:51;11.95;;;9.38;;
59974;SDS011;62136;-35.664;-63.766;2022-09-01T02:05:21;10.32;;;9.25;;
59974;SDS011;62136;-35.664;-63.766;2022-09-01T02:07:51;10.98;;;9.75;;
59974;SDS011;62136;-35.664;-63.766;2022-09-01T02:10:25;11.00;;;8.77;;
59974;SDS011;62136;-35.664;-63.766;2022-09-01T02:12:56;9.98;;;8.90;;
59974;SDS011;62136;-35.664;-63.766;2022-09-01T02:15:31;9.85;;;8.85;;
59974;SDS011;62136;-35.664;-63.766;2022-09-01T02:18:03;10.18;;;9.18;;
59974;SDS011;62136;-35.664;-63.766;2022-09-01T02:20:31;11.18;;;10.00;;
59974;SDS011;62136;-35.664;-63.766;2022-09-01T02:22:58;11.32;;;9.35;;
59974;SDS011;62136;-35.664;-63.766;2022-09-01T02:25:36;10.93;;;9.38;;
59974;SDS011;62136;-35.664;-63.766;2022-09-01T02:28:09;12.70;;;9.63;;
59974;SDS011;62136;-35.664;-63.766;2022-09-01T02:30:41;11.93;;;9.07;;
59974;SDS011;62136;-35.664;-63.766;2022-09-01T02:33:14;10.70;;;9.48;;
59974;SDS011;62136;-35.664;-63.766;2022-09-01T02:35:48;10.82;;;8.98;;
59974;SDS011;62136;-35.664;-63.766;2022-09-01T02:38:25;12.25;;;9.50;;
59974;SDS011;62136;-35.664;-63.766;2022-09-01T02:40:54;9.90;;;8.82;;
59974;SDS011;62136;-35.664;-63.766;2022-09-01T02:43:25;10.13;;;9.13;;
59974;SDS011;62136;-35.664;-63.766;2022-09-01T02:45:56;9.82;;;8.82;;
59974;SDS011;62136;-35.664;-63.766;2022-09-01T02:48:27;9.35;;;8.32;;
59974;SDS011;62136;-35.664;-63.766;2022-09-01T02:51:00;9.32;;;8.15;;
59974;SDS011;62136;-35.664;-63.766;2022-09-01T02:53:36;10.45;;;9.18;;
59974;SDS011;62136;-35.664;-63.766;2022-09-01T02:56:04;9.80;;;8.80;;
59974;SDS011;62136;-35.664;-63.766;2022-09-01T02:58:38;10.32;;;9.27;;
59974;SDS011;62136;-35.664;-63.766;2022-09-01T03:01:34;9.50;;;8.50;;
59974;SDS011;62136;-35.664;-63.766;2022-09-01T03:04:01;11.38;;;8.85;;
59974;SDS011;62136;-35.664;-63.766;2022-09-01T03:06:35;10.02;;;8.75;;
59974;SDS011;62136;-35.664;-63.766;2022-09-01T03:09:04;10.98;;;9.02;;
59974;SDS011;62136;-35.664;-63.766;2022-09-01T03:11:35;10.18;;;9.18;;
59974;SDS011;62136;-35.664;-63.766;2022-09-01T03:14:08;10.45;;;9.25;;
59974;SDS011;62136;-35.664;-63.766;2022-09-01T03:16:35;9.90;;;8.90;;
59974;SDS011;62136;-35.664;-63.766;2022-09-01T03:19:04;11.63;;;9.38;;
59974;SDS011;62136;-35.664;-63.766;2022-09-01T03:21:34;10.20;;;9.00;;
59974;SDS011;62136;-35.664;-63.766;2022-09-01T03:24:06;9.40;;;8.27;;
59974;SDS011;62136;-35.664;-63.766;2022-09-01T03:26:42;9.95;;;8.52;;
59974;SDS011;62136;-35.664;-63.766;2022-09-01T03:29:11;10.52;;;9.07;;
59974;SDS011;62136;-35.664;-63.766;2022-09-01T03:31:40;10.82;;;8.90;;
59974;SDS011;62136;-35.664;-63.766;2022-09-01T03:34:10;10.15;;;8.48;;
59974;SDS011;62136;-35.664;-63.766;2022-09-01T03:36:37;9.20;;;8.30;;
59974;SDS011;62136;-35.664;-63.766;2022-09-01T03:39:04;10.15;;;8.45;;
59974;SDS011;62136;-35.664;-63.766;2022-09-01T03:41:34;11.68;;;9.27;;
59974;SDS011;62136;-35.664;-63.766;2022-09-01T03:44:02;9.48;;;7.93;;
59974;SDS011;62136;-35.664;-63.766;2022-09-01T03:46:29;9.38;;;8.48;;
59974;SDS011;62136;-35.664;-63.766;2022-09-01T03:48:57;10.45;;;8.05;;
59974;SDS011;62136;-35.664;-63.766;2022-09-01T03:51:30;11.05;;;9.32;;
59974;SDS011;62136;-35.664;-63.766;2022-09-01T03:53:57;9.30;;;8.40;;
59974;SDS011;62136;-35.664;-63.766;2022-09-01T03:56:26;9.68;;;8.68;;
59974;SDS011;62136;-35.664;-63.766;2022-09-01T03:58:55;9.45;;;8.55;;
59974;SDS011;62136;-35.664;-63.766;2022-09-01T04:01:24;9.60;;;8.50;;
59974;SDS011;62136;-35.664;-63.766;2022-09-01T04:03:53;12.00;;;9.73;;
59974;SDS011;62136;-35.664;-63.766;2022-09-01T04:06:20;11.00;;;9.13;;
59974;SDS011;62136;-35.664;-63.766;2022-09-01T04:08:48;9.57;;;8.57;;
59974;SDS011;62136;-35.664;-63.766;2022-09-01T04:11:18;10.07;;;8.55;;
59974;SDS011;62136;-35.664;-63.766;2022-09-01T04:13:48;10.48;;;9.25;;
59974;SDS011;62136;-35.664;-63.766;2022-09-01T04:16:36;11.50;;;9.13;;
59974;SDS011;62136;-35.664;-63.766;2022-09-01T04:19:22;10.85;;;9.15;;
59974;SDS011;62136;-35.664;-63.766;2022-09-01T04:21:56;9.50;;;8.48;;
59974;SDS011;62136;-35.664;-63.766;2022-09-01T04:24:25;9.55;;;8.50;;
59974;SDS011;62136;-35.664;-63.766;2022-09-01T04:26:57;11.38;;;9.25;;
59974;SDS011;62136;-35.664;-63.766;2022-09-01T04:29:35;9.90;;;8.73;;
59974;SDS011;62136;-35.664;-63.766;2022-09-01T04:32:06;11.15;;;8.75;;
59974;SDS011;62136;-35.664;-63.766;2022-09-01T04:34:37;10.18;;;8.70;;
59974;SDS011;62136;-35.664;-63.766;2022-09-01T04:37:08;9.50;;;8.50;;
59974;SDS011;62136;-35.664;-63.766;2022-09-01T04:39:47;9.95;;;8.95;;
59974;SDS011;62136;-35.664;-63.766;2022-09-01T04:42:17;9.55;;;8.65;;
59974;SDS011;62136;-35.664;-63.766;2022-09-01T04:44:46;10.35;;;9.25;;
59974;SDS011;62136;-35.664;-63.766;2022-09-01T04:47:18;9.68;;;8.75;;
59974;SDS011;62136;-35.664;-63.766;2022-09-01T04:49:58;9.32;;;8.35;;
59974;SDS011;62136;-35.664;-63.766;2022-09-01T04:52:26;9.50;;;8.60;;
59974;SDS011;62136;-35.664;-63.766;2022-09-01T04:54:53;9.93;;;8.95;;
59974;SDS011;62136;-35.664;-63.766;2022-09-01T04:57:20;10.27;;;8.70;;
59974;SDS011;62136;-35.664;-63.766;2022-09-01T04:59:48;10.15;;;8.93;;
59974;SDS011;62136;-35.664;-63.766;2022-09-01T05:02:15;10.25;;;9.15;;
59974;SDS011;62136;-35.664;-63.766;2022-09-01T05:04:42;10.02;;;9.02;;
59974;SDS011;62136;-35.664;-63.766;2022-09-01T05:07:13;10.27;;;8.77;;
59974;SDS011;62136;-35.664;-63.766;2022-09-01T05:09:41;10.90;;;8.90;;
59974;SDS011;62136;-35.664;-63.766;2022-09-01T05:12:10;10.02;;;9.10;;
59974;SDS011;62136;-35.664;-63.766;2022-09-01T05:14:38;10.52;;;8.77;;
59974;SDS011;62136;-35.664;-63.766;2022-09-01T05:17:11;11.18;;;8.55;;
59974;SDS011;62136;-35.664;-63.766;2022-09-01T05:19:40;9.75;;;8.75;;
59974;SDS011;62136;-35.664;-63.766;2022-09-01T05:22:09;9.50;;;8.60;;
59974;SDS011;62136;-35.664;-63.766;2022-09-01T05:24:37;10.02;;;8.65;;
59974;SDS011;62136;-35.664;-63.766;2022-09-01T05:27:05;9.52;;;8.52;;
59974;SDS011;62136;-35.664;-63.766;2022-09-01T05:29:33;9.40;;;8.50;;
59974;SDS011;62136;-35.664;-63.766;2022-09-01T05:32:02;10.45;;;8.52;;
59974;SDS011;62136;-35.664;-63.766;2022-09-01T05:34:34;9.65;;;8.65;;
59974;SDS011;62136;-35.664;-63.766;2022-09-01T05:37:07;9.38;;;8.48;;
59974;SDS011;62136;-35.664;-63.766;2022-09-01T05:39:37;9.88;;;8.88;;
59974;SDS011;62136;-35.664;-63.766;2022-09-01T05:42:05;9.90;;;8.90;;
59974;SDS011;62136;-35.664;-63.766;2022-09-01T05:44:35;9.77;;;8.65;;
59974;SDS011;62136;-35.664;-63.766;2022-09-01T05:47:08;9.60;;;8.70;;
59974;SDS011;62136;-35.664;-63.766;2022-09-01T05:49:40;9.02;;;8.20;;
59974;SDS011;62136;-35.664;-63.766;2022-09-01T05:52:08;9.80;;;8.77;;
59974;SDS011;62136;-35.664;-63.766;2022-09-01T05:54:35;9.57;;;8.55;;
59974;SDS011;62136;-35.664;-63.766;2022-09-01T05:57:02;10.10;;;8.98;;
59974;SDS011;62136;-35.664;-63.766;2022-09-01T05:59:32;10.00;;;8.98;;
59974;SDS011;62136;-35.664;-63.766;2022-09-01T06:01:59;11.45;;;8.68;;
59974;SDS011;62136;-35.664;-63.766;2022-09-01T06:04:27;9.32;;;8.30;;
59974;SDS011;62136;-35.664;-63.766;2022-09-01T06:06:54;9.15;;;8.25;;
59974;SDS011;62136;-35.664;-63.766;2022-09-01T06:09:21;10.50;;;8.68;;
59974;SDS011;62136;-35.664;-63.766;2022-09-01T06:11:48;10.02;;;8.32;;
59974;SDS011;62136;-35.664;-63.766;2022-09-01T06:14:16;8.85;;;7.97;;
59974;SDS011;62136;-35.664;-63.766;2022-09-01T06:16:44;9.95;;;8.77;;
59974;SDS011;62136;-35.664;-63.766;2022-09-01T06:19:11;9.20;;;8.25;;
59974;SDS011;62136;-35.664;-63.766;2022-09-01T06:21:39;8.48;;;7.68;;
59974;SDS011;62136;-35.664;-63.766;2022-09-01T06:24:06;8.68;;;7.88;;
59974;SDS011;62136;-35.664;-63.766;2022-09-01T06:26:34;8.60;;;7.80;;
59974;SDS011;62136;-35.664;-63.766;2022-09-01T06:31:31;9.02;;;8.13;;
59974;SDS011;62136;-35.664;-63.766;2022-09-01T06:34:00;9.43;;;8.43;;
59974;SDS011;62136;-35.664;-63.766;2022-09-01T06:36:30;10.07;;;8.10;;
59974;SDS011;62136;-35.664;-63.766;2022-09-01T06:39:01;9.57;;;8.30;;
59974;SDS011;62136;-35.664;-63.766;2022-09-01T06:41:29;8.70;;;7.90;;
59974;SDS011;62136;-35.664;-63.766;2022-09-01T06:43:56;9.75;;;8.52;;
59974;SDS011;62136;-35.664;-63.766;2022-09-01T06:46:26;10.38;;;8.48;;
59974;SDS011;62136;-35.664;-63.766;2022-09-01T06:48:54;9.07;;;8.10;;
59974;SDS011;62136;-35.664;-63.766;2022-09-01T06:51:23;9.77;;;7.90;;
59974;SDS011;62136;-35.664;-63.766;2022-09-01T06:53:56;8.48;;;7.57;;
59974;SDS011;62136;-35.664;-63.766;2022-09-01T06:56:26;9.45;;;8.50;;
59974;SDS011;62136;-35.664;-63.766;2022-09-01T06:58:56;8.07;;;7.18;;
59974;SDS011;62136;-35.664;-63.766;2022-09-01T07:01:24;9.57;;;7.72;;
59974;SDS011;62136;-35.664;-63.766;2022-09-01T07:03:52;9.25;;;8.25;;
59974;SDS011;62136;-35.664;-63.766;2022-09-01T07:06:23;9.13;;;7.47;;
59974;SDS011;62136;-35.664;-63.766;2022-09-01T07:08:56;9.25;;;7.80;;
59974;SDS011;62136;-35.664;-63.766;2022-09-01T07:11:27;8.35;;;7.57;;
59974;SDS011;62136;-35.664;-63.766;2022-09-01T07:13:59;8.90;;;8.00;;
59974;SDS011;62136;-35.664;-63.766;2022-09-01T07:16:29;7.95;;;7.15;;
59974;SDS011;62136;-35.664;-63.766;2022-09-01T07:19:03;8.75;;;7.90;;
59974;SDS011;62136;-35.664;-63.766;2022-09-01T07:21:37;8.32;;;7.50;;
59974;SDS011;62136;-35.664;-63.766;2022-09-01T07:24:05;10.02;;;7.63;;
59974;SDS011;62136;-35.664;-63.766;2022-09-01T07:26:33;8.75;;;7.95;;
59974;SDS011;62136;-35.664;-63.766;2022-09-01T07:29:02;8.35;;;7.55;;
59974;SDS011;62136;-35.664;-63.766;2022-09-01T07:31:32;8.70;;;7.70;;
59974;SDS011;62136;-35.664;-63.766;2022-09-01T07:34:06;8.90;;;7.47;;
59974;SDS011;62136;-35.664;-63.766;2022-09-01T07:36:40;7.88;;;7.18;;
59974;SDS011;62136;-35.664;-63.766;2022-09-01T07:39:09;7.72;;;7.03;;
59974;SDS011;62136;-35.664;-63.766;2022-09-01T07:41:38;7.90;;;6.75;;
59974;SDS011;62136;-35.664;-63.766;2022-09-01T07:44:07;9.32;;;7.32;;
59974;SDS011;62136;-35.664;-63.766;2022-09-01T07:46:37;7.32;;;6.60;;
59974;SDS011;62136;-35.664;-63.766;2022-09-01T07:49:05;8.00;;;6.65;;
59974;SDS011;62136;-35.664;-63.766;2022-09-01T07:51:32;8.93;;;7.00;;
59974;SDS011;62136;-35.664;-63.766;2022-09-01T07:54:01;8.10;;;7.25;;
59974;SDS011;62136;-35.664;-63.766;2022-09-01T07:56:29;8.52;;;7.68;;
59974;SDS011;62136;-35.664;-63.766;2022-09-01T07:58:56;7.40;;;6.68;;
59974;SDS011;62136;-35.664;-63.766;2022-09-01T08:01:24;8.02;;;7.22;;
59974;SDS011;62136;-35.664;-63.766;2022-09-01T08:03:54;8.98;;;7.18;;
59974;SDS011;62136;-35.664;-63.766;2022-09-01T08:06:24;9.98;;;7.70;;
59974;SDS011;62136;-35.664;-63.766;2022-09-01T08:08:54;7.80;;;7.00;;
59974;SDS011;62136;-35.664;-63.766;2022-09-01T08:11:23;8.38;;;6.78;;
59974;SDS011;62136;-35.664;-63.766;2022-09-01T08:13:53;7.88;;;7.07;;
59974;SDS011;62136;-35.664;-63.766;2022-09-01T08:16:24;7.10;;;6.40;;
59974;SDS011;62136;-35.664;-63.766;2022-09-01T08:18:52;7.40;;;6.35;;
59974;SDS011;62136;-35.664;-63.766;2022-09-01T08:21:20;7.20;;;6.50;;
59974;SDS011;62136;-35.664;-63.766;2022-09-01T08:23:49;6.90;;;6.20;;
59974;SDS011;62136;-35.664;-63.766;2022-09-01T08:26:18;8.23;;;6.20;;
59974;SDS011;62136;-35.664;-63.766;2022-09-01T08:28:47;7.53;;;6.82;;
59974;SDS011;62136;-35.664;-63.766;2022-09-01T08:31:16;8.38;;;6.18;;
59974;SDS011;62136;-35.664;-63.766;2022-09-01T08:33:44;7.50;;;6.30;;
59974;SDS011;62136;-35.664;-63.766;2022-09-01T08:36:14;8.45;;;6.75;;
59974;SDS011;62136;-35.664;-63.766;2022-09-01T08:38:42;7.97;;;6.80;;
59974;SDS011;62136;-35.664;-63.766;2022-09-01T08:41:15;7.80;;;6.28;;
59974;SDS011;62136;-35.664;-63.766;2022-09-01T08:46:34;6.70;;;5.88;;
59974;SDS011;62136;-35.664;-63.766;2022-09-01T08:49:07;7.40;;;6.50;;
59974;SDS011;62136;-35.664;-63.766;2022-09-01T08:51:47;6.97;;;6.38;;
59974;SDS011;62136;-35.664;-63.766;2022-09-01T08:57:07;8.32;;;6.63;;
59974;SDS011;62136;-35.664;-63.766;2022-09-01T08:59:39;7.57;;;6.43;;
59974;SDS011;62136;-35.664;-63.766;2022-09-01T09:04:44;8.07;;;6.13;;
59974;SDS011;62136;-35.664;-63.766;2022-09-01T09:10:04;6.95;;;5.60;;
59974;SDS011;62136;-35.664;-63.766;2022-09-01T09:12:56;5.47;;;4.95;;
59974;SDS011;62136;-35.664;-63.766;2022-09-01T09:15:55;9.18;;;6.05;;
59974;SDS011;62136;-35.664;-63.766;2022-09-01T09:18:28;6.20;;;5.60;;
59974;SDS011;62136;-35.664;-63.766;2022-09-01T09:21:35;5.93;;;5.43;;
59974;SDS011;62136;-35.664;-63.766;2022-09-01T09:24:12;6.35;;;5.63;;
59974;SDS011;62136;-35.664;-63.766;2022-09-01T09:26:48;6.75;;;5.47;;
59974;SDS011;62136;-35.664;-63.766;2022-09-01T09:29:20;6.80;;;6.07;;
59974;SDS011;62136;-35.664;-63.766;2022-09-01T09:31:47;6.72;;;6.13;;
59974;SDS011;62136;-35.664;-63.766;2022-09-01T09:48:07;5.80;;;5.20;;
59974;SDS011;62136;-35.664;-63.766;2022-09-01T09:50:50;6.13;;;5.10;;
59974;SDS011;62136;-35.664;-63.766;2022-09-01T09:58:50;6.07;;;5.15;;
59974;SDS011;62136;-35.664;-63.766;2022-09-01T10:03:49;6.28;;;5.68;;
59974;SDS011;62136;-35.664;-63.766;2022-09-01T10:08:58;6.10;;;4.97;;
59974;SDS011;62136;-35.664;-63.766;2022-09-01T10:11:28;5.82;;;5.28;;
59974;SDS011;62136;-35.664;-63.766;2022-09-01T10:14:06;6.07;;;5.47;;
59974;SDS011;62136;-35.664;-63.766;2022-09-01T10:19:17;5.60;;;5.05;;
59974;SDS011;62136;-35.664;-63.766;2022-09-01T10:21:47;8.18;;;5.60;;
59974;SDS011;62136;-35.664;-63.766;2022-09-01T10:24:21;5.82;;;5.22;;
59974;SDS011;62136;-35.664;-63.766;2022-09-01T10:27:03;8.15;;;5.07;;
59974;SDS011;62136;-35.664;-63.766;2022-09-01T10:29:45;5.20;;;4.72;;
59974;SDS011;62136;-35.664;-63.766;2022-09-01T10:32:23;5.63;;;4.72;;
59974;SDS011;62136;-35.664;-63.766;2022-09-01T10:35:00;5.88;;;5.18;;
59974;SDS011;62136;-35.664;-63.766;2022-09-01T10:37:29;6.22;;;4.95;;
59974;SDS011;62136;-35.664;-63.766;2022-09-01T10:42:44;5.85;;;5.25;;
59974;SDS011;62136;-35.664;-63.766;2022-09-01T10:45:28;5.78;;;4.90;;
59974;SDS011;62136;-35.664;-63.766;2022-09-01T10:53:39;5.72;;;5.05;;
59974;SDS011;62136;-35.664;-63.766;2022-09-01T10:56:17;5.53;;;5.03;;
59974;SDS011;62136;-35.664;-63.766;2022-09-01T11:04:12;5.55;;;4.90;;
59974;SDS011;62136;-35.664;-63.766;2022-09-01T11:20:35;5.13;;;4.22;;
59974;SDS011;62136;-35.664;-63.766;2022-09-01T11:25:56;4.88;;;4.38;;
59974;SDS011;62136;-35.664;-63.766;2022-09-01T11:46:50;5.72;;;4.95;;
59974;SDS011;62136;-35.664;-63.766;2022-09-01T11:49:33;9.00;;;5.53;;
59974;SDS011;62136;-35.664;-63.766;2022-09-01T11:52:05;8.40;;;5.35;;
59974;SDS011;62136;-35.664;-63.766;2022-09-01T11:54:39;10.52;;;5.55;;
59974;SDS011;62136;-35.664;-63.766;2022-09-01T11:59:47;6.45;;;5.68;;
59974;SDS011;62136;-35.664;-63.766;2022-09-01T12:02:19;6.88;;;5.90;;
59974;SDS011;62136;-35.664;-63.766;2022-09-01T12:04:50;8.15;;;5.95;;
59974;SDS011;62136;-35.664;-63.766;2022-09-01T12:07:24;7.65;;;5.70;;
59974;SDS011;62136;-35.664;-63.766;2022-09-01T12:10:21;7.28;;;5.35;;
59974;SDS011;62136;-35.664;-63.766;2022-09-01T12:13:02;5.80;;;5.10;;
59974;SDS011;62136;-35.664;-63.766;2022-09-01T12:15:38;7.13;;;6.43;;
59974;SDS011;62136;-35.664;-63.766;2022-09-01T12:18:20;9.55;;;7.18;;
59974;SDS011;62136;-35.664;-63.766;2022-09-01T12:20:56;9.10;;;7.15;;
59974;SDS011;62136;-35.664;-63.766;2022-09-01T12:23:37;12.60;;;8.20;;
59974;SDS011;62136;-35.664;-63.766;2022-09-01T12:26:09;13.05;;;9.05;;
59974;SDS011;62136;-35.664;-63.766;2022-09-01T12:28:42;11.95;;;9.00;;
59974;SDS011;62136;-35.664;-63.766;2022-09-01T12:31:17;15.02;;;10.07;;
59974;SDS011;62136;-35.664;-63.766;2022-09-01T12:33:46;12.30;;;8.90;;
59974;SDS011;62136;-35.664;-63.766;2022-09-01T12:38:56;13.80;;;9.18;;
59974;SDS011;62136;-35.664;-63.766;2022-09-01T12:41:43;12.93;;;8.18;;
59974;SDS011;62136;-35.664;-63.766;2022-09-01T12:47:10;13.32;;;8.52;;
59974;SDS011;62136;-35.664;-63.766;2022-09-01T12:49:44;13.00;;;8.00;;
59974;SDS011;62136;-35.664;-63.766;2022-09-01T12:55:13;13.77;;;7.95;;
59974;SDS011;62136;-35.664;-63.766;2022-09-01T12:57:47;12.50;;;7.38;;
59974;SDS011;62136;-35.664;-63.766;2022-09-01T13:00:26;12.93;;;6.93;;
59974;SDS011;62136;-35.664;-63.766;2022-09-01T13:05:29;14.20;;;6.78;;
59974;SDS011;62136;-35.664;-63.766;2022-09-01T13:08:00;15.70;;;7.63;;
59974;SDS011;62136;-35.664;-63.766;2022-09-01T13:10:34;13.40;;;7.53;;
59974;SDS011;62136;-35.664;-63.766;2022-09-01T13:15:32;14.90;;;6.32;;
59974;SDS011;62136;-35.664;-63.766;2022-09-01T13:18:01;14.75;;;7.38;;
59974;SDS011;62136;-35.664;-63.766;2022-09-01T13:20:28;15.10;;;6.65;;
59974;SDS011;62136;-35.664;-63.766;2022-09-01T13:22:56;13.52;;;7.00;;
59974;SDS011;62136;-35.664;-63.766;2022-09-01T13:25:24;13.10;;;6.25;;
59974;SDS011;62136;-35.664;-63.766;2022-09-01T13:27:51;12.15;;;6.57;;
59974;SDS011;62136;-35.664;-63.766;2022-09-01T13:30:20;13.32;;;6.00;;
59974;SDS011;62136;-35.664;-63.766;2022-09-01T13:32:49;17.17;;;5.57;;
59974;SDS011;62136;-35.664;-63.766;2022-09-01T13:35:18;11.23;;;5.78;;
59974;SDS011;62136;-35.664;-63.766;2022-09-01T13:37:47;13.82;;;5.43;;
59974;SDS011;62136;-35.664;-63.766;2022-09-01T13:40:18;11.07;;;5.43;;
59974;SDS011;62136;-35.664;-63.766;2022-09-01T13:42:51;14.45;;;5.10;;
59974;SDS011;62136;-35.664;-63.766;2022-09-01T13:45:20;11.50;;;4.25;;
59974;SDS011;62136;-35.664;-63.766;2022-09-01T13:47:50;10.35;;;4.63;;
59974;SDS011;62136;-35.664;-63.766;2022-09-01T13:50:20;10.40;;;3.92;;
59974;SDS011;62136;-35.664;-63.766;2022-09-01T13:52:49;9.60;;;4.20;;
59974;SDS011;62136;-35.664;-63.766;2022-09-01T13:55:22;9.10;;;4.60;;
59974;SDS011;62136;-35.664;-63.766;2022-09-01T13:57:54;8.35;;;3.80;;
59974;SDS011;62136;-35.664;-63.766;2022-09-01T14:00:24;12.80;;;3.65;;
59974;SDS011;62136;-35.664;-63.766;2022-09-01T14:02:58;11.15;;;3.65;;
59974;SDS011;62136;-35.664;-63.766;2022-09-01T14:05:29;5.65;;;3.78;;
59974;SDS011;62136;-35.664;-63.766;2022-09-01T14:07:58;8.55;;;3.90;;
59974;SDS011;62136;-35.664;-63.766;2022-09-01T14:10:27;8.48;;;3.58;;
59974;SDS011;62136;-35.664;-63.766;2022-09-01T14:12:57;9.90;;;3.05;;
59974;SDS011;62136;-35.664;-63.766;2022-09-01T14:15:26;6.80;;;2.97;;
59974;SDS011;62136;-35.664;-63.766;2022-09-01T14:17:54;12.35;;;2.95;;
59974;SDS011;62136;-35.664;-63.766;2022-09-01T14:20:24;6.25;;;2.40;;
59974;SDS011;62136;-35.664;-63.766;2022-09-01T14:22:54;9.55;;;2.80;;
59974;SDS011;62136;-35.664;-63.766;2022-09-01T14:25:22;9.55;;;2.72;;
59974;SDS011;62136;-35.664;-63.766;2022-09-01T14:27:50;7.93;;;2.65;;
59974;SDS011;62136;-35.664;-63.766;2022-09-01T14:30:23;9.23;;;2.75;;
59974;SDS011;62136;-35.664;-63.766;2022-09-01T14:32:51;5.07;;;2.10;;
59974;SDS011;62136;-35.664;-63.766;2022-09-01T14:35:21;6.22;;;2.35;;
59974;SDS011;62136;-35.664;-63.766;2022-09-01T14:37:52;7.60;;;2.15;;
59974;SDS011;62136;-35.664;-63.766;2022-09-01T14:40:21;9.75;;;2.42;;
59974;SDS011;62136;-35.664;-63.766;2022-09-01T14:42:49;8.25;;;2.22;;
59974;SDS011;62136;-35.664;-63.766;2022-09-01T14:45:18;6.72;;;2.50;;
59974;SDS011;62136;-35.664;-63.766;2022-09-01T14:47:51;11.13;;;3.20;;
59974;SDS011;62136;-35.664;-63.766;2022-09-01T14:50:19;4.30;;;2.45;;
59974;SDS011;62136;-35.664;-63.766;2022-09-01T14:53:00;7.85;;;2.90;;
59974;SDS011;62136;-35.664;-63.766;2022-09-01T14:55:28;8.70;;;2.67;;
59974;SDS011;62136;-35.664;-63.766;2022-09-01T14:57:57;6.38;;;2.13;;
59974;SDS011;62136;-35.664;-63.766;2022-09-01T15:00:25;8.55;;;2.42;;
59974;SDS011;62136;-35.664;-63.766;2022-09-01T15:02:54;7.35;;;2.30;;
59974;SDS011;62136;-35.664;-63.766;2022-09-01T15:05:23;7.85;;;2.38;;
59974;SDS011;62136;-35.664;-63.766;2022-09-01T15:07:51;14.50;;;3.03;;
59974;SDS011;62136;-35.664;-63.766;2022-09-01T15:10:20;8.43;;;2.13;;
59974;SDS011;62136;-35.664;-63.766;2022-09-01T15:12:49;10.10;;;2.33;;
59974;SDS011;62136;-35.664;-63.766;2022-09-01T15:15:16;9.38;;;2.40;;
59974;SDS011;62136;-35.664;-63.766;2022-09-01T15:17:43;5.95;;;1.88;;
59974;SDS011;62136;-35.664;-63.766;2022-09-01T15:20:11;16.13;;;5.25;;
59974;SDS011;62136;-35.664;-63.766;2022-09-01T15:22:56;18.08;;;5.80;;
59974;SDS011;62136;-35.664;-63.766;2022-09-01T15:25:23;12.90;;;3.80;;
59974;SDS011;62136;-35.664;-63.766;2022-09-01T15:27:50;15.32;;;4.53;;
59974;SDS011;62136;-35.664;-63.766;2022-09-01T15:30:17;14.48;;;4.45;;
59974;SDS011;62136;-35.664;-63.766;2022-09-01T15:32:47;16.27;;;7.60;;
59974;SDS011;62136;-35.664;-63.766;2022-09-01T15:35:17;15.10;;;6.07;;
59974;SDS011;62136;-35.664;-63.766;2022-09-01T15:37:45;38.97;;;15.55;;
59974;SDS011;62136;-35.664;-63.766;2022-09-01T15:40:14;31.52;;;14.75;;
59974;SDS011;62136;-35.664;-63.766;2022-09-01T15:42:42;46.53;;;22.42;;
59974;SDS011;62136;-35.664;-63.766;2022-09-01T15:45:16;30.17;;;15.07;;
59974;SDS011;62136;-35.664;-63.766;2022-09-01T15:47:46;35.33;;;15.20;;
59974;SDS011;62136;-35.664;-63.766;2022-09-01T15:50:14;39.65;;;18.63;;
59974;SDS011;62136;-35.664;-63.766;2022-09-01T15:53:17;33.75;;;17.30;;
59974;SDS011;62136;-35.664;-63.766;2022-09-01T15:55:39;33.88;;;16.58;;
59974;SDS011;62136;-35.664;-63.766;2022-09-01T15:58:09;32.45;;;15.30;;
59974;SDS011;62136;-35.664;-63.766;2022-09-01T16:00:37;26.65;;;15.10;;
59974;SDS011;62136;-35.664;-63.766;2022-09-01T16:03:05;33.45;;;15.45;;
59974;SDS011;62136;-35.664;-63.766;2022-09-01T16:05:33;22.67;;;12.70;;
59974;SDS011;62136;-35.664;-63.766;2022-09-01T16:08:02;25.65;;;12.38;;
59974;SDS011;62136;-35.664;-63.766;2022-09-01T16:10:42;18.77;;;10.20;;